createdAt,value
2023-01-09T00:01:54.699Z,4.13
2023-01-09T00:06:58.004Z,4.08
2023-01-09T00:12:02.849Z,4.04
2023-01-09T00:17:06.359Z,4.07
2023-01-09T00:22:09.985Z,4.10
2023-01-09T00:27:14.619Z,4.14
2023-01-09T00:32:18.345Z,4.13
2023-01-09T00:37:21.856Z,4.11
2023-01-09T00:42:31.205Z,4.09
2023-01-09T00:47:43.222Z,4.10
2023-01-09T00:52:48.525Z,4.15
2023-01-09T00:57:51.994Z,4.14
2023-01-09T01:02:55.878Z,4.15
2023-01-09T01:07:59.432Z,4.18
2023-01-09T01:13:02.947Z,4.23
2023-01-09T01:18:07.078Z,4.30
2023-01-09T01:23:10.768Z,4.34
2023-01-09T01:28:14.313Z,4.36
2023-01-09T01:33:17.830Z,4.36
2023-01-09T01:38:21.350Z,4.38
2023-01-09T01:43:25.576Z,4.42
2023-01-09T01:48:30.733Z,4.43
2023-01-09T01:53:41.731Z,4.40
2023-01-09T01:58:50.460Z,4.41
2023-01-09T02:03:57.867Z,4.46
2023-01-09T02:09:04.321Z,4.46
2023-01-09T02:14:07.978Z,4.47
2023-01-09T02:19:46.101Z,4.46
2023-01-09T02:24:52.378Z,4.47
2023-01-09T02:30:12.071Z,4.50
2023-01-09T02:35:40.166Z,4.54
2023-01-09T02:40:50.745Z,4.56
2023-01-09T02:45:54.253Z,4.60
2023-01-09T02:51:34.329Z,4.56
2023-01-09T02:56:46.960Z,4.57
2023-01-09T03:02:07.896Z,4.59
2023-01-09T03:07:19.696Z,4.66
2023-01-09T03:12:28.639Z,4.67
2023-01-09T03:17:40.783Z,4.65
2023-01-09T03:23:06.583Z,4.59
2023-01-09T03:28:27.107Z,4.57
2023-01-09T03:33:30.629Z,4.59
2023-01-09T03:38:34.451Z,4.59
2023-01-09T03:43:37.965Z,4.62
2023-01-09T03:48:41.695Z,4.62
2023-01-09T03:53:45.199Z,4.61
2023-01-09T03:58:50.456Z,4.59
2023-01-09T04:03:54.176Z,4.63
2023-01-09T04:08:57.800Z,4.61
2023-01-09T04:14:01.311Z,4.63
2023-01-09T04:19:04.929Z,4.67
2023-01-09T04:24:08.956Z,4.71
2023-01-09T04:29:12.578Z,4.72
2023-01-09T04:34:16.193Z,4.70
2023-01-09T04:39:19.822Z,4.68
2023-01-09T04:44:28.234Z,4.72
2023-01-09T04:49:31.653Z,4.76
2023-01-09T04:54:35.182Z,4.77
2023-01-09T04:59:38.683Z,4.81
2023-01-09T05:04:42.319Z,4.85
2023-01-09T05:09:45.823Z,4.86
2023-01-09T05:14:49.442Z,4.88
2023-01-09T05:19:53.053Z,4.91
2023-01-09T05:24:56.936Z,4.91
2023-01-09T05:30:00.830Z,4.93
2023-01-09T05:35:04.726Z,4.97
2023-01-09T05:40:09.010Z,4.99
2023-01-09T05:45:12.994Z,5.02
2023-01-09T05:50:16.715Z,5.10
2023-01-09T05:55:20.632Z,5.10
2023-01-09T06:00:24.424Z,5.05
2023-01-09T06:05:28.790Z,5.07
2023-01-09T06:10:32.098Z,5.06
2023-01-09T06:15:35.766Z,5.02
2023-01-09T06:20:39.438Z,4.98
2023-01-09T06:25:43.063Z,4.95
2023-01-09T06:30:51.406Z,4.95
2023-01-09T06:35:54.898Z,4.97
2023-01-09T06:40:58.421Z,4.99
2023-01-09T06:46:02.371Z,5.03
2023-01-09T06:51:06.231Z,5.04
2023-01-09T06:56:09.679Z,5.07
2023-01-09T07:01:13.341Z,5.12
2023-01-09T07:06:18.449Z,5.11
2023-01-09T07:11:21.964Z,5.09
2023-01-09T07:16:25.843Z,5.11
2023-01-09T07:21:30.864Z,5.15
2023-01-09T07:26:36.401Z,5.18
2023-01-09T07:31:40.008Z,5.24
2023-01-09T07:36:46.811Z,5.27
2023-01-09T07:41:50.327Z,5.28
2023-01-09T07:46:53.945Z,5.29
2023-01-09T07:51:57.567Z,5.33
2023-01-09T07:57:01.387Z,5.35
2023-01-09T08:02:05.996Z,5.35
2023-01-09T08:07:09.748Z,5.41
2023-01-09T08:12:13.266Z,5.50
2023-01-09T08:17:16.786Z,5.53
2023-01-09T08:22:20.603Z,5.55
2023-01-09T08:27:24.120Z,5.61
2023-01-09T08:32:27.740Z,5.63
2023-01-09T08:37:31.355Z,5.68
2023-01-09T08:42:53.407Z,5.73
2023-01-09T08:47:57.856Z,5.73
2023-01-09T08:53:01.056Z,5.75
2023-01-09T08:58:04.780Z,5.78
2023-01-09T09:03:11.409Z,5.79
2023-01-09T09:08:16.067Z,5.82
2023-01-09T09:13:19.517Z,5.88
2023-01-09T09:18:23.133Z,5.89
2023-01-09T09:23:26.751Z,5.93
2023-01-09T09:28:30.372Z,5.90
2023-01-09T09:33:34.398Z,5.93
2023-01-09T09:38:37.827Z,6.03
2023-01-09T09:44:35.600Z,6.07
2023-01-09T09:50:31.648Z,6.10
2023-01-09T09:55:38.825Z,6.13
2023-01-09T10:00:42.976Z,6.16
2023-01-09T10:05:50.750Z,6.20
2023-01-09T10:10:55.753Z,6.22
2023-01-09T10:16:08.092Z,6.21
2023-01-09T10:21:32.678Z,6.21
2023-01-09T10:26:43.775Z,6.18
2023-01-09T10:31:56.299Z,6.15
2023-01-09T10:37:19.517Z,6.12
2023-01-09T10:42:32.230Z,6.17
2023-01-09T10:47:39.813Z,6.17
2023-01-09T10:52:43.339Z,6.22
2023-01-09T10:57:53.912Z,6.18
2023-01-09T11:02:57.328Z,6.13
2023-01-09T11:08:13.230Z,6.17
2023-01-09T11:13:26.068Z,6.17
2023-01-09T11:18:29.682Z,6.14
2023-01-09T11:23:34.024Z,6.15
2023-01-09T11:28:37.227Z,6.16
2023-01-09T11:33:50.177Z,6.25
2023-01-09T11:38:59.413Z,6.28
2023-01-09T11:44:05.279Z,6.30
2023-01-09T11:49:21.191Z,6.29
2023-01-09T11:54:32.390Z,6.34
2023-01-09T11:59:36.108Z,6.36
2023-01-09T12:05:04.910Z,6.32
2023-01-09T12:10:18.873Z,6.27
2023-01-09T12:15:44.304Z,6.21
2023-01-09T12:20:53.655Z,6.12
2023-01-09T12:26:21.745Z,6.06
2023-01-09T12:31:28.399Z,6.02
2023-01-09T12:37:11.558Z,5.98
2023-01-09T12:42:34.552Z,5.97
2023-01-09T12:47:46.653Z,5.95
2023-01-09T12:53:06.978Z,6.00
2023-01-09T12:58:26.368Z,6.00
2023-01-09T13:03:48.519Z,5.95
2023-01-09T13:09:04.835Z,5.95
2023-01-09T13:14:46.649Z,5.94
2023-01-09T13:19:50.060Z,5.91
2023-01-09T13:25:16.620Z,5.87
2023-01-09T13:30:25.148Z,5.79
2023-01-09T13:35:28.768Z,5.74
2023-01-09T13:40:33.308Z,5.67
2023-01-09T13:45:39.967Z,5.66
2023-01-09T13:50:47.278Z,5.61
2023-01-09T13:56:00.238Z,5.59
2023-01-09T14:01:37.645Z,5.60
2023-01-09T14:06:41.163Z,5.63
2023-01-09T14:11:46.123Z,5.65
2023-01-09T14:16:49.766Z,5.61
2023-01-09T14:21:56.411Z,5.58
2023-01-09T14:27:01.988Z,5.49
2023-01-09T14:32:23.828Z,5.48
2023-01-09T14:37:30.743Z,5.48
2023-01-09T14:42:40.690Z,5.53
2023-01-09T14:48:01.102Z,5.54
2023-01-09T14:53:11.374Z,5.53
2023-01-09T14:58:23.047Z,5.51
2023-01-09T15:03:47.895Z,5.53
2023-01-09T15:09:28.789Z,5.54
2023-01-09T15:14:46.029Z,5.54
2023-01-09T15:19:50.463Z,5.54
2023-01-09T15:24:53.979Z,5.53
2023-01-09T15:30:16.299Z,5.52
2023-01-09T15:35:20.692Z,5.49
2023-01-09T15:40:32.380Z,5.47
2023-01-09T15:45:40.331Z,5.50
2023-01-09T15:50:45.173Z,5.45
2023-01-09T15:56:13.862Z,5.41
2023-01-09T16:01:32.419Z,5.40
2023-01-09T16:06:47.200Z,5.38
2023-01-09T16:11:53.480Z,5.38
2023-01-09T16:17:02.729Z,5.36
2023-01-09T16:22:25.908Z,5.34
2023-01-09T16:27:35.886Z,5.35
2023-01-09T16:32:51.785Z,5.38
2023-01-09T16:37:55.297Z,5.39
2023-01-09T16:43:01.299Z,5.42
2023-01-09T16:48:16.454Z,5.44
2023-01-09T16:53:28.780Z,5.47
2023-01-09T16:58:35.883Z,5.55
2023-01-09T17:03:43.547Z,5.62
2023-01-09T17:08:47.516Z,5.69
2023-01-09T17:13:51.339Z,5.72
2023-01-09T17:18:54.757Z,5.80
2023-01-09T17:24:18.335Z,5.83
2023-01-09T17:29:22.259Z,5.85
2023-01-09T17:34:25.677Z,5.87
2023-01-09T17:39:29.212Z,5.87
2023-01-09T17:44:32.744Z,5.84
2023-01-09T17:49:36.231Z,5.88
2023-01-09T17:54:40.666Z,6.01
2023-01-09T17:59:45.306Z,6.08
2023-01-09T18:04:48.919Z,6.12
2023-01-09T18:09:52.234Z,6.15
2023-01-09T18:14:55.847Z,6.19
2023-01-09T18:19:59.267Z,6.26
2023-01-09T18:25:04.608Z,6.32
2023-01-09T18:30:09.056Z,6.39
2023-01-09T18:35:12.185Z,6.41
2023-01-09T18:40:16.092Z,6.44
2023-01-09T18:45:22.800Z,6.50
2023-01-09T18:50:26.315Z,6.53
2023-01-09T18:55:29.810Z,6.57
2023-01-09T19:00:33.636Z,6.59
2023-01-09T19:05:37.044Z,6.61
2023-01-09T19:10:40.868Z,6.67
2023-01-09T19:15:44.296Z,6.68
2023-01-09T19:20:47.911Z,6.73
2023-01-09T19:25:53.476Z,6.70
2023-01-09T19:30:57.599Z,6.72
2023-01-09T19:36:01.206Z,6.67
2023-01-09T19:41:21.008Z,6.65
2023-01-09T19:46:26.371Z,6.68
2023-01-09T19:51:29.879Z,6.72
2023-01-09T19:56:44.047Z,6.76
2023-01-09T20:01:48.283Z,6.76
2023-01-09T20:06:52.931Z,6.75
2023-01-09T20:11:56.949Z,6.77
2023-01-09T20:17:04.465Z,6.78
2023-01-09T20:22:07.872Z,6.78
2023-01-09T20:27:11.491Z,6.75
2023-01-09T20:32:14.901Z,6.70
2023-01-09T20:37:18.417Z,6.65
2023-01-09T20:42:21.936Z,6.59
2023-01-09T20:47:26.278Z,6.50
2023-01-09T20:52:29.682Z,6.44
2023-01-09T20:57:33.299Z,6.38
2023-01-09T21:02:37.427Z,6.31
2023-01-09T21:07:40.952Z,6.22
2023-01-09T21:12:44.466Z,6.21
2023-01-09T21:17:48.093Z,6.17
2023-01-09T21:22:52.103Z,6.13
2023-01-09T21:27:55.727Z,6.09
2023-01-09T21:32:59.238Z,6.09
2023-01-09T21:38:03.278Z,6.11
2023-01-09T21:43:25.422Z,6.15
2023-01-09T21:48:28.934Z,6.17
2023-01-09T21:53:32.448Z,6.15
2023-01-09T21:58:36.285Z,6.14
2023-01-09T22:03:39.685Z,6.16
2023-01-09T22:08:43.305Z,6.17
2023-01-09T22:13:52.200Z,6.16
2023-01-09T22:18:56.885Z,6.17
2023-01-09T22:24:01.968Z,6.21
2023-01-09T22:29:05.431Z,6.22
2023-01-09T22:34:17.574Z,6.23
2023-01-09T22:39:21.290Z,6.29
2023-01-09T22:44:24.906Z,6.31
2023-01-09T22:49:33.472Z,6.26
2023-01-09T22:54:44.750Z,6.18
2023-01-09T22:59:48.157Z,6.11
2023-01-09T23:05:48.307Z,6.04
2023-01-09T23:11:12.165Z,5.97
2023-01-09T23:16:15.408Z,5.91
2023-01-09T23:21:18.915Z,5.88
2023-01-09T23:26:22.437Z,5.84
2023-01-09T23:31:26.308Z,5.81
2023-01-09T23:36:30.286Z,5.78
2023-01-09T23:41:52.229Z,5.78
2023-01-09T23:46:55.747Z,5.78
2023-01-09T23:52:01.942Z,5.77
2023-01-09T23:57:05.756Z,5.75
